createdAt,value
2023-04-26T00:00:10.065Z,40.64
2023-04-26T00:02:38.620Z,40.54
2023-04-26T00:05:09.587Z,40.37
2023-04-26T00:07:39.569Z,40.28
2023-04-26T00:10:09.690Z,40.01
2023-04-26T00:12:38.585Z,39.82
2023-04-26T00:15:08.712Z,39.86
2023-04-26T00:17:37.661Z,39.96
2023-04-26T00:20:11.760Z,40.01
2023-04-26T00:22:41.836Z,40.06
2023-04-26T00:25:12.605Z,40.12
2023-04-26T00:27:40.970Z,40.14
2023-04-26T00:30:11.347Z,40.25
2023-04-26T00:32:39.895Z,40.34
2023-04-26T00:35:12.427Z,40.44
2023-04-26T00:37:42.399Z,40.56
2023-04-26T00:40:12.672Z,40.59
2023-04-26T00:42:41.462Z,40.74
2023-04-26T00:45:10.863Z,40.64
2023-04-26T00:47:39.545Z,40.71
2023-04-26T00:50:10.713Z,40.93
2023-04-26T00:52:39.958Z,40.95
2023-04-26T00:55:11.468Z,40.90
2023-04-26T00:57:41.135Z,40.92
2023-04-26T01:00:12.232Z,40.88
2023-04-26T01:02:41.684Z,40.72
2023-04-26T01:05:11.216Z,40.62
2023-04-26T01:07:39.909Z,40.20
2023-04-26T01:10:11.269Z,39.89
2023-04-26T01:12:40.331Z,39.70
2023-04-26T01:15:10.863Z,39.65
2023-04-26T01:17:39.823Z,39.45
2023-04-26T01:20:12.228Z,39.41
2023-04-26T01:22:42.751Z,39.13
2023-04-26T01:25:13.798Z,39.09
2023-04-26T01:27:42.227Z,38.88
2023-04-26T01:30:11.769Z,38.59
2023-04-26T01:32:40.435Z,38.52
2023-04-26T01:35:09.766Z,38.52
2023-04-26T01:37:38.187Z,38.13
2023-04-26T01:40:10.605Z,37.73
2023-04-26T01:42:39.041Z,37.70
2023-04-26T01:45:08.902Z,37.67
2023-04-26T01:47:37.467Z,37.52
2023-04-26T01:50:07.716Z,37.20
2023-04-26T01:52:36.328Z,37.13
2023-04-26T01:55:05.422Z,37.07
2023-04-26T01:57:35.220Z,36.98
2023-04-26T02:00:04.946Z,36.96
2023-04-26T02:02:33.365Z,36.85
2023-04-26T02:05:01.865Z,36.99
2023-04-26T02:07:30.879Z,36.86
2023-04-26T02:09:59.215Z,36.86
2023-04-26T02:12:27.837Z,36.92
2023-04-26T02:14:57.815Z,37.02
2023-04-26T02:17:29.329Z,37.03
2023-04-26T02:19:57.784Z,37.22
2023-04-26T02:22:26.780Z,37.16
2023-04-26T02:24:55.373Z,37.42
2023-04-26T02:27:23.781Z,37.69
2023-04-26T02:29:52.130Z,37.87
2023-04-26T02:32:21.973Z,37.96
2023-04-26T02:34:50.718Z,38.09
2023-04-26T02:37:19.205Z,38.36
2023-04-26T02:39:52.162Z,38.35
2023-04-26T02:42:20.561Z,38.61
2023-04-26T02:44:48.974Z,38.62
2023-04-26T02:47:17.518Z,38.44
2023-04-26T02:49:47.252Z,38.55
2023-04-26T02:52:15.634Z,38.58
2023-04-26T02:54:44.023Z,38.45
2023-04-26T02:57:12.597Z,38.46
2023-04-26T02:59:41.023Z,38.42
2023-04-26T03:02:09.494Z,38.49
2023-04-26T03:04:38.406Z,38.34
2023-04-26T03:07:08.205Z,38.00
2023-04-26T03:09:38.251Z,38.24
2023-04-26T03:12:08.029Z,38.36
2023-04-26T03:14:36.624Z,38.18
2023-04-26T03:17:05.085Z,38.04
2023-04-26T03:19:33.668Z,38.23
2023-04-26T03:22:02.064Z,38.26
2023-04-26T03:24:31.847Z,37.97
2023-04-26T03:27:00.271Z,38.12
2023-04-26T03:29:28.836Z,37.83
2023-04-26T03:31:57.980Z,37.81
2023-04-26T03:34:27.452Z,37.97
2023-04-26T03:36:56.019Z,38.06
2023-04-26T03:39:24.406Z,37.67
2023-04-26T03:41:54.208Z,37.91
2023-04-26T03:44:22.937Z,37.95
2023-04-26T03:46:51.343Z,37.50
2023-04-26T03:49:19.742Z,37.54
2023-04-26T03:51:48.134Z,37.55
2023-04-26T03:54:16.845Z,37.75
2023-04-26T03:56:45.234Z,37.84
2023-04-26T03:59:15.139Z,37.88
2023-04-26T04:01:43.507Z,37.72
2023-04-26T04:04:12.188Z,37.72
2023-04-26T04:06:40.816Z,37.56
2023-04-26T04:09:09.263Z,37.87
2023-04-26T04:11:37.685Z,37.60
2023-04-26T04:14:06.177Z,37.70
2023-04-26T04:16:35.948Z,37.47
2023-04-26T04:19:05.207Z,37.74
2023-04-26T04:21:33.731Z,37.56
2023-04-26T04:24:03.465Z,37.70
2023-04-26T04:26:31.832Z,37.84
2023-04-26T04:29:08.710Z,37.99
2023-04-26T04:31:40.177Z,38.03
2023-04-26T04:34:08.836Z,37.93
2023-04-26T04:36:38.780Z,38.08
2023-04-26T04:39:12.522Z,37.81
2023-04-26T04:41:47.652Z,38.16
2023-04-26T04:44:16.893Z,38.24
2023-04-26T04:46:47.111Z,38.10
2023-04-26T04:49:15.941Z,38.09
2023-04-26T04:51:44.378Z,38.14
2023-04-26T04:54:13.642Z,38.16
2023-04-26T04:56:42.669Z,38.50
2023-04-26T04:59:11.581Z,38.72
2023-04-26T05:01:40.031Z,38.59
2023-04-26T05:04:10.028Z,38.74
2023-04-26T05:06:38.847Z,38.98
2023-04-26T05:09:07.238Z,39.21
2023-04-26T05:11:35.749Z,39.30
2023-04-26T05:14:04.214Z,39.43
2023-04-26T05:16:32.867Z,39.52
2023-04-26T05:19:01.261Z,39.46
2023-04-26T05:21:31.645Z,39.34
2023-04-26T05:24:00.005Z,39.07
2023-04-26T05:26:28.536Z,38.85
2023-04-26T05:28:57.084Z,38.71
2023-04-26T05:31:26.166Z,38.70
2023-04-26T05:33:54.814Z,38.80
2023-04-26T05:36:23.327Z,38.52
2023-04-26T05:38:53.112Z,38.50
2023-04-26T05:41:21.516Z,38.31
2023-04-26T05:43:49.996Z,38.18
2023-04-26T05:46:18.444Z,37.86
2023-04-26T05:48:47.000Z,37.50
2023-04-26T05:51:16.068Z,37.12
2023-04-26T05:53:44.443Z,36.82
2023-04-26T05:56:14.248Z,36.15
2023-04-26T05:58:42.610Z,35.98
2023-04-26T06:01:12.407Z,35.63
2023-04-26T06:03:41.029Z,35.36
2023-04-26T06:06:09.659Z,34.61
2023-04-26T06:08:38.506Z,34.92
2023-04-26T06:11:07.062Z,35.03
2023-04-26T06:13:36.784Z,34.74
2023-04-26T06:16:05.902Z,34.64
2023-04-26T06:18:34.276Z,34.66
2023-04-26T06:21:02.755Z,34.46
2023-04-26T06:23:31.180Z,34.48
2023-04-26T06:25:59.534Z,34.56
2023-04-26T06:28:28.158Z,34.25
2023-04-26T06:30:57.998Z,34.05
2023-04-26T06:33:26.427Z,33.98
2023-04-26T06:35:54.784Z,33.40
2023-04-26T06:38:23.125Z,33.45
2023-04-26T06:40:51.545Z,33.21
2023-04-26T06:43:19.982Z,32.82
2023-04-26T06:45:48.338Z,32.64
2023-04-26T06:48:18.079Z,32.23
2023-04-26T06:50:46.454Z,32.22
2023-04-26T06:53:15.294Z,32.11
2023-04-26T06:55:43.660Z,31.71
2023-04-26T06:58:12.249Z,31.50
2023-04-26T07:00:40.721Z,31.66
2023-04-26T07:03:09.276Z,31.72
2023-04-26T07:05:41.069Z,31.97
2023-04-26T07:08:09.673Z,32.01
2023-04-26T07:10:38.301Z,31.73
2023-04-26T07:13:09.312Z,31.39
2023-04-26T07:15:38.025Z,31.01
2023-04-26T07:18:06.564Z,30.86
2023-04-26T07:20:35.056Z,30.35
2023-04-26T07:23:04.846Z,29.35
2023-04-26T07:25:33.230Z,29.31
2023-04-26T07:28:01.689Z,29.34
2023-04-26T07:30:32.555Z,29.04
2023-04-26T07:33:02.255Z,29.76
2023-04-26T07:35:30.873Z,29.27
2023-04-26T07:37:59.521Z,29.46
2023-04-26T07:40:29.890Z,29.80
2023-04-26T07:42:58.367Z,29.81
2023-04-26T07:45:27.016Z,28.69
2023-04-26T07:47:55.538Z,28.47
2023-04-26T07:50:25.292Z,28.65
2023-04-26T07:52:53.783Z,28.09
2023-04-26T07:55:22.401Z,28.35
2023-04-26T07:57:52.289Z,28.08
2023-04-26T08:00:22.467Z,28.11
2023-04-26T08:02:51.164Z,28.14
2023-04-26T08:05:20.355Z,28.15
2023-04-26T08:07:49.028Z,28.21
2023-04-26T08:10:17.683Z,28.80
2023-04-26T08:12:46.355Z,28.93
2023-04-26T08:15:16.349Z,28.93
2023-04-26T08:17:44.813Z,29.06
2023-04-26T08:20:14.307Z,29.21
2023-04-26T08:22:42.630Z,29.15
2023-04-26T08:25:12.348Z,29.23
2023-04-26T08:27:41.241Z,29.02
2023-04-26T08:30:11.079Z,28.79
2023-04-26T08:32:41.025Z,28.47
2023-04-26T08:35:10.811Z,28.63
2023-04-26T08:37:39.649Z,28.60
2023-04-26T08:40:10.736Z,27.73
2023-04-26T08:42:44.172Z,27.45
2023-04-26T08:45:13.247Z,27.54
2023-04-26T08:47:46.305Z,27.82
2023-04-26T08:50:17.053Z,27.52
2023-04-26T08:52:45.728Z,27.55
2023-04-26T08:55:16.438Z,27.15
2023-04-26T08:57:46.991Z,26.39
2023-04-26T09:00:17.442Z,27.16
2023-04-26T09:02:51.292Z,27.44
2023-04-26T09:05:24.529Z,27.43
2023-04-26T09:07:59.023Z,27.54
2023-04-26T09:10:28.254Z,26.77
2023-04-26T09:12:57.429Z,26.52
2023-04-26T09:15:27.660Z,26.41
2023-04-26T09:17:57.537Z,26.71
2023-04-26T09:20:27.906Z,26.52
2023-04-26T09:23:06.861Z,26.19
2023-04-26T09:25:36.220Z,25.23
2023-04-26T09:28:06.129Z,25.33
2023-04-26T09:30:40.830Z,25.31
2023-04-26T09:33:10.686Z,25.26
2023-04-26T09:35:40.942Z,25.37
2023-04-26T09:38:13.600Z,25.45
2023-04-26T09:40:44.617Z,25.52
2023-04-26T09:43:14.843Z,25.59
2023-04-26T09:45:50.591Z,25.36
2023-04-26T09:48:23.873Z,25.39
2023-04-26T09:50:54.588Z,25.40
2023-04-26T09:53:32.116Z,25.10
2023-04-26T09:56:09.408Z,25.02
2023-04-26T09:58:39.712Z,25.37
2023-04-26T10:01:10.118Z,25.61
2023-04-26T10:03:40.769Z,25.48
2023-04-26T10:06:09.793Z,25.48
2023-04-26T10:08:38.627Z,25.77
2023-04-26T10:11:10.508Z,25.27
2023-04-26T10:13:40.491Z,25.30
2023-04-26T10:16:10.234Z,24.93
2023-04-26T10:18:40.646Z,24.72
2023-04-26T10:21:16.229Z,25.12
2023-04-26T10:23:45.224Z,24.83
2023-04-26T10:26:51.686Z,25.41
2023-04-26T10:29:20.698Z,25.44
2023-04-26T10:32:16.420Z,25.81
2023-04-26T10:34:47.328Z,25.62
2023-04-26T10:37:18.232Z,25.26
2023-04-26T10:39:48.709Z,25.13
2023-04-26T10:42:27.584Z,24.76
2023-04-26T10:44:57.264Z,24.81
2023-04-26T10:47:32.519Z,24.90
2023-04-26T10:50:09.191Z,25.07
2023-04-26T10:52:39.298Z,24.70
2023-04-26T10:55:09.729Z,24.54
2023-04-26T10:57:54.340Z,24.38
2023-04-26T11:00:34.215Z,23.72
2023-04-26T11:03:09.593Z,23.90
2023-04-26T11:05:49.542Z,22.98
2023-04-26T11:08:20.622Z,22.64
2023-04-26T11:11:09.733Z,21.14
2023-04-26T11:13:41.412Z,21.20
2023-04-26T11:16:12.534Z,21.23
2023-04-26T11:18:43.028Z,21.81
2023-04-26T11:21:15.408Z,21.83
2023-04-26T11:23:43.903Z,22.38
2023-04-26T11:26:12.576Z,22.33
2023-04-26T11:28:41.207Z,22.70
2023-04-26T11:31:09.700Z,22.44
2023-04-26T11:33:38.143Z,21.85
2023-04-26T11:36:07.818Z,21.58
2023-04-26T11:38:39.177Z,21.04
2023-04-26T11:41:07.591Z,20.35
2023-04-26T11:43:37.628Z,20.11
2023-04-26T11:46:07.954Z,18.83
2023-04-26T11:48:38.502Z,18.75
2023-04-26T11:51:09.424Z,16.89
2023-04-26T11:53:40.738Z,17.17
2023-04-26T11:56:17.255Z,17.86
2023-04-26T11:58:48.090Z,18.21
2023-04-26T12:01:23.773Z,18.54
2023-04-26T12:03:53.946Z,19.04
2023-04-26T12:06:32.934Z,18.59
2023-04-26T12:09:06.227Z,19.15
2023-04-26T12:11:34.777Z,19.54
2023-04-26T12:14:04.037Z,19.26
2023-04-26T12:16:32.877Z,19.51
2023-04-26T12:19:01.370Z,17.90
2023-04-26T12:21:30.840Z,16.48
2023-04-26T12:23:59.749Z,16.35
2023-04-26T12:26:45.883Z,16.81
2023-04-26T12:29:14.392Z,16.19
2023-04-26T12:31:42.872Z,16.30
2023-04-26T12:34:11.450Z,15.09
2023-04-26T12:36:43.312Z,15.37
2023-04-26T12:39:13.514Z,15.63
2023-04-26T12:41:42.296Z,16.12
2023-04-26T12:44:14.431Z,16.57
2023-04-26T12:46:43.045Z,17.29
2023-04-26T12:49:12.701Z,17.65
2023-04-26T12:51:41.130Z,17.92
2023-04-26T12:54:09.610Z,18.30
2023-04-26T12:56:43.881Z,18.59
2023-04-26T12:59:13.921Z,18.03
2023-04-26T13:01:42.332Z,18.52
2023-04-26T13:04:11.418Z,18.35
2023-04-26T13:06:40.120Z,18.65
2023-04-26T13:09:09.138Z,18.57
2023-04-26T13:11:37.848Z,18.89
2023-04-26T13:14:07.607Z,19.24
2023-04-26T13:16:42.334Z,19.43
2023-04-26T13:19:10.904Z,19.10
2023-04-26T13:21:39.511Z,19.27
2023-04-26T13:24:08.609Z,19.43
2023-04-26T13:26:37.141Z,19.47
2023-04-26T13:29:05.663Z,19.79
2023-04-26T13:31:34.195Z,19.94
2023-04-26T13:34:07.088Z,19.60
2023-04-26T13:36:35.517Z,19.29
2023-04-26T13:39:05.152Z,18.75
2023-04-26T13:41:35.003Z,18.20
2023-04-26T13:44:04.690Z,17.77
2023-04-26T13:46:33.394Z,17.69
2023-04-26T13:49:01.832Z,17.20
2023-04-26T13:51:32.950Z,17.46
2023-04-26T13:54:01.476Z,17.62
2023-04-26T13:56:30.024Z,17.90
2023-04-26T13:58:58.441Z,17.41
2023-04-26T14:01:27.534Z,17.49
2023-04-26T14:03:56.430Z,17.38
2023-04-26T14:06:25.000Z,17.50
2023-04-26T14:08:54.914Z,16.90
2023-04-26T14:11:24.446Z,16.40
2023-04-26T14:13:56.116Z,16.10
2023-04-26T14:16:25.548Z,16.08
2023-04-26T14:18:54.259Z,15.00
2023-04-26T14:21:22.843Z,15.53
2023-04-26T14:23:51.356Z,15.60
2023-04-26T14:26:21.649Z,16.11
2023-04-26T14:28:50.096Z,16.40
2023-04-26T14:31:19.835Z,16.55
2023-04-26T14:33:48.633Z,17.24
2023-04-26T14:36:17.048Z,17.74
2023-04-26T14:38:47.463Z,17.93
2023-04-26T14:41:16.793Z,17.70
2023-04-26T14:43:47.983Z,18.34
2023-04-26T14:46:16.891Z,18.72
2023-04-26T14:48:45.748Z,18.89
2023-04-26T14:51:14.308Z,19.13
2023-04-26T14:53:42.782Z,18.90
2023-04-26T14:56:11.835Z,18.99
2023-04-26T14:58:40.222Z,19.27
2023-04-26T15:01:10.600Z,19.34
2023-04-26T15:03:39.675Z,18.92
2023-04-26T15:06:10.790Z,19.03
2023-04-26T15:08:39.240Z,19.37
2023-04-26T15:11:07.938Z,19.29
2023-04-26T15:13:36.539Z,19.59
2023-04-26T15:16:07.856Z,19.51
2023-04-26T15:18:37.894Z,19.16
2023-04-26T15:21:06.403Z,19.33
2023-04-26T15:23:34.836Z,19.40
2023-04-26T15:26:03.899Z,19.38
2023-04-26T15:28:32.873Z,19.64
2023-04-26T15:31:04.687Z,19.63
2023-04-26T15:33:33.470Z,19.74
2023-04-26T15:36:03.428Z,19.64
2023-04-26T15:38:32.126Z,19.90
2023-04-26T15:41:00.659Z,20.03
2023-04-26T15:43:29.354Z,19.83
2023-04-26T15:45:57.829Z,19.83
2023-04-26T15:48:27.176Z,20.22
2023-04-26T15:50:56.951Z,20.27
2023-04-26T15:53:27.087Z,20.06
2023-04-26T15:55:55.590Z,20.57
2023-04-26T15:58:24.336Z,20.37
2023-04-26T16:00:53.111Z,20.63
2023-04-26T16:03:21.857Z,20.56
2023-04-26T16:05:50.614Z,20.62
2023-04-26T16:08:38.795Z,20.84
2023-04-26T16:11:09.611Z,20.68
2023-04-26T16:13:38.030Z,20.65
2023-04-26T16:16:10.789Z,20.66
2023-04-26T16:18:40.260Z,20.65
2023-04-26T16:21:09.901Z,20.72
2023-04-26T16:23:39.358Z,20.64
2023-04-26T16:26:09.805Z,20.88
2023-04-26T16:28:38.493Z,20.99
2023-04-26T16:31:07.428Z,21.11
2023-04-26T16:33:35.996Z,21.06
2023-04-26T16:36:04.677Z,21.23
2023-04-26T16:38:33.078Z,21.11
2023-04-26T16:41:02.623Z,21.25
2023-04-26T16:43:33.821Z,21.39
2023-04-26T16:46:03.976Z,21.53
2023-04-26T16:48:33.354Z,21.63
2023-04-26T16:51:02.928Z,21.57
2023-04-26T16:53:33.528Z,21.60
2023-04-26T16:56:02.028Z,21.83
2023-04-26T16:58:31.828Z,21.76
2023-04-26T17:01:00.484Z,21.92
2023-04-26T17:03:29.241Z,21.91
2023-04-26T17:05:57.931Z,22.02
2023-04-26T17:08:27.387Z,22.01
2023-04-26T17:10:56.233Z,21.95
2023-04-26T17:13:29.403Z,22.22
2023-04-26T17:15:59.473Z,22.36
2023-04-26T17:18:27.964Z,22.33
2023-04-26T17:20:56.699Z,22.53
2023-04-26T17:23:26.026Z,22.70
2023-04-26T17:25:55.392Z,22.67
2023-04-26T17:28:24.395Z,22.78
2023-04-26T17:30:52.976Z,22.84
2023-04-26T17:33:26.485Z,23.04
2023-04-26T17:35:54.924Z,23.03
2023-04-26T17:38:24.412Z,23.02
2023-04-26T17:40:56.549Z,23.20
2023-04-26T17:43:26.457Z,23.37
2023-04-26T17:45:55.856Z,23.20
2023-04-26T17:48:26.410Z,23.38
2023-04-26T17:50:55.609Z,23.43
2023-04-26T17:53:26.027Z,23.58
2023-04-26T17:55:55.311Z,23.52
2023-04-26T17:58:25.229Z,23.61
2023-04-26T18:00:54.869Z,23.53
2023-04-26T18:03:23.790Z,23.57
2023-04-26T18:05:54.071Z,23.71
2023-04-26T18:08:22.903Z,23.75
2023-04-26T18:10:53.876Z,23.91
2023-04-26T18:13:22.775Z,24.02
2023-04-26T18:15:51.596Z,24.16
2023-04-26T18:18:20.579Z,24.07
2023-04-26T18:20:49.676Z,24.08
2023-04-26T18:23:21.938Z,24.28
2023-04-26T18:25:52.024Z,24.27
2023-04-26T18:28:20.894Z,24.38
2023-04-26T18:30:49.520Z,24.15
2023-04-26T18:33:18.373Z,24.33
2023-04-26T18:35:50.015Z,24.35
2023-04-26T18:38:20.473Z,24.67
2023-04-26T18:40:50.122Z,24.36
2023-04-26T18:43:19.411Z,24.65
2023-04-26T18:45:49.119Z,24.65
2023-04-26T18:48:19.045Z,24.81
2023-04-26T18:50:54.292Z,24.99
2023-04-26T18:53:25.735Z,25.02
2023-04-26T18:55:59.092Z,25.17
2023-04-26T18:58:29.672Z,25.03
2023-04-26T19:00:59.364Z,25.18
2023-04-26T19:03:29.440Z,25.19
2023-04-26T19:06:00.296Z,25.26
2023-04-26T19:08:30.904Z,25.42
2023-04-26T19:11:01.560Z,25.62
2023-04-26T19:13:30.708Z,25.48
2023-04-26T19:16:00.089Z,25.52
2023-04-26T19:18:29.098Z,25.56
2023-04-26T19:20:58.458Z,25.67
2023-04-26T19:23:30.765Z,25.62
2023-04-26T19:26:06.074Z,25.61
2023-04-26T19:28:36.384Z,25.76
2023-04-26T19:31:05.923Z,25.93
2023-04-26T19:33:36.770Z,25.90
2023-04-26T19:36:07.585Z,26.07
2023-04-26T19:38:38.600Z,26.04
2023-04-26T19:41:14.677Z,25.99
2023-04-26T19:43:44.227Z,26.43
2023-04-26T19:46:14.141Z,26.32
2023-04-26T19:48:43.619Z,26.23
2023-04-26T19:51:18.622Z,26.25
2023-04-26T19:53:50.601Z,26.21
2023-04-26T19:56:22.222Z,26.28
2023-04-26T19:58:52.236Z,26.27
2023-04-26T20:01:21.647Z,26.35
2023-04-26T20:04:00.463Z,26.34
2023-04-26T20:06:29.649Z,26.44
2023-04-26T20:09:02.083Z,26.43
2023-04-26T20:11:32.904Z,26.55
2023-04-26T20:14:01.823Z,26.63
2023-04-26T20:16:31.086Z,26.66
2023-04-26T20:19:00.762Z,26.80
2023-04-26T20:21:30.302Z,26.83
2023-04-26T20:24:03.000Z,26.77
2023-04-26T20:26:33.024Z,26.71
2023-04-26T20:29:02.365Z,26.77
2023-04-26T20:31:31.415Z,26.83
2023-04-26T20:34:00.714Z,26.79
2023-04-26T20:36:29.526Z,26.74
2023-04-26T20:38:59.734Z,26.89
2023-04-26T20:41:28.634Z,26.90
2023-04-26T20:43:58.103Z,26.88
2023-04-26T20:46:27.539Z,26.74
2023-04-26T20:48:56.545Z,26.81
2023-04-26T20:51:25.022Z,26.91
2023-04-26T20:53:53.913Z,26.98
2023-04-26T20:56:23.730Z,27.17
2023-04-26T20:58:52.238Z,27.25
2023-04-26T21:01:20.794Z,27.49
2023-04-26T21:03:49.378Z,27.50
2023-04-26T21:06:17.890Z,27.62
2023-04-26T21:08:46.329Z,27.54
2023-04-26T21:11:14.716Z,27.74
2023-04-26T21:13:45.794Z,27.86
2023-04-26T21:16:14.354Z,27.96
2023-04-26T21:18:42.912Z,27.94
2023-04-26T21:21:11.300Z,28.08
2023-04-26T21:23:39.713Z,28.01
2023-04-26T21:26:08.134Z,28.04
2023-04-26T21:28:36.674Z,28.09
2023-04-26T21:31:08.817Z,28.04
2023-04-26T21:33:37.234Z,28.02
2023-04-26T21:36:06.918Z,28.07
2023-04-26T21:38:35.326Z,28.06
2023-04-26T21:41:03.869Z,28.03
2023-04-26T21:43:32.443Z,28.12
2023-04-26T21:46:00.834Z,28.24
2023-04-26T21:48:30.683Z,28.22
2023-04-26T21:50:59.033Z,28.19
2023-04-26T21:53:27.392Z,28.48
2023-04-26T21:55:56.068Z,28.39
2023-04-26T21:58:24.697Z,28.51
2023-04-26T22:00:53.242Z,28.38
2023-04-26T22:03:22.045Z,28.53
2023-04-26T22:05:51.937Z,28.58
2023-04-26T22:08:20.381Z,28.51
2023-04-26T22:10:48.795Z,28.36
2023-04-26T22:13:17.321Z,28.61
2023-04-26T22:15:45.685Z,28.60
2023-04-26T22:18:14.117Z,28.61
2023-04-26T22:20:42.690Z,28.65
2023-04-26T22:23:12.526Z,28.55
2023-04-26T22:25:40.966Z,28.53
2023-04-26T22:28:09.383Z,28.66
2023-04-26T22:30:37.841Z,28.58
2023-04-26T22:33:07.071Z,28.67
2023-04-26T22:35:36.504Z,28.66
2023-04-26T22:38:04.977Z,28.59
2023-04-26T22:40:34.997Z,28.61
2023-04-26T22:43:03.630Z,28.58
2023-04-26T22:45:33.212Z,28.50
2023-04-26T22:48:01.725Z,28.56
2023-04-26T22:50:30.192Z,28.61
2023-04-26T22:52:58.588Z,28.60
2023-04-26T22:55:27.395Z,28.68
2023-04-26T22:57:57.226Z,28.63
2023-04-26T23:00:26.094Z,28.68
2023-04-26T23:02:54.621Z,28.63
2023-04-26T23:05:23.269Z,28.84
2023-04-26T23:07:51.831Z,28.68
2023-04-26T23:10:20.443Z,28.69
2023-04-26T23:12:50.790Z,28.59
2023-04-26T23:15:20.800Z,28.71
2023-04-26T23:17:49.353Z,28.77
2023-04-26T23:20:17.923Z,28.80
2023-04-26T23:22:46.340Z,28.82
2023-04-26T23:25:14.790Z,28.72
2023-04-26T23:27:43.565Z,28.96
2023-04-26T23:30:13.981Z,28.87
2023-04-26T23:32:43.798Z,28.93
2023-04-26T23:35:12.289Z,28.95
2023-04-26T23:37:40.955Z,29.00
2023-04-26T23:40:10.860Z,29.05
2023-04-26T23:42:39.325Z,29.03
2023-04-26T23:45:09.826Z,29.08
2023-04-26T23:47:38.345Z,29.03
2023-04-26T23:50:09.363Z,28.98
2023-04-26T23:52:37.770Z,28.98
2023-04-26T23:55:08.133Z,29.04
2023-04-26T23:57:37.214Z,29.05
